createdAt,value
2022-11-07T00:03:10.276Z,0.6
2022-11-07T00:05:36.631Z,0.8
2022-11-07T00:10:37.048Z,0.6
2022-11-07T00:15:37.501Z,0.7
2022-11-07T00:20:37.979Z,0.7
2022-11-07T00:25:38.430Z,0.8
2022-11-07T00:30:38.971Z,0.7
2022-11-07T00:35:39.439Z,0.5
2022-11-07T00:40:39.762Z,0.8
2022-11-07T00:45:40.295Z,0.8
2022-11-07T00:50:40.668Z,0.7
2022-11-07T00:55:41.187Z,0.8
2022-11-07T01:00:41.653Z,0.7
2022-11-07T01:05:42.062Z,0.5
2022-11-07T01:10:42.720Z,0.9
2022-11-07T01:15:43.019Z,0.7
2022-11-07T01:20:43.568Z,0.7
2022-11-07T01:25:44.380Z,0.7
2022-11-07T01:30:44.497Z,0.7
2022-11-07T01:35:45.116Z,0.6
2022-11-07T01:40:45.637Z,0.6
2022-11-07T01:45:46.007Z,0.8
2022-11-07T01:50:46.600Z,0.7
2022-11-07T01:55:47.069Z,0.6
2022-11-07T02:00:47.662Z,0.7
2022-11-07T02:05:48.130Z,0.7
2022-11-07T02:10:48.728Z,0.7
2022-11-07T02:15:49.076Z,0.6
2022-11-07T02:20:49.665Z,0.6
2022-11-07T02:25:50.493Z,0.7
2022-11-07T02:30:50.621Z,0.5
2022-11-07T02:35:51.135Z,0.7
2022-11-07T02:40:51.802Z,0.7
2022-11-07T02:45:52.170Z,0.6
2022-11-07T02:50:52.679Z,0.8
2022-11-07T02:55:53.230Z,0.6
2022-11-07T03:00:53.651Z,1.1
2022-11-07T03:05:54.132Z,0.7
2022-11-07T03:10:54.754Z,0.5
2022-11-07T03:15:55.101Z,1.0
2022-11-07T03:20:55.711Z,0.6
2022-11-07T03:25:56.352Z,0.8
2022-11-07T03:30:56.638Z,0.9
2022-11-07T03:35:57.173Z,0.8
2022-11-07T03:40:57.893Z,0.8
2022-11-07T03:45:58.165Z,0.9
2022-11-07T03:50:58.641Z,0.8
2022-11-07T03:55:59.370Z,0.8
2022-11-07T04:00:59.666Z,0.7
2022-11-07T04:06:00.349Z,0.6
2022-11-07T04:11:00.781Z,0.8
2022-11-07T04:16:01.320Z,0.7
2022-11-07T04:21:01.731Z,0.6
2022-11-07T04:26:02.480Z,0.8
2022-11-07T04:31:02.700Z,0.7
2022-11-07T04:36:03.176Z,0.7
2022-11-07T04:41:03.750Z,0.8
2022-11-07T04:46:04.189Z,0.7
2022-11-07T04:51:04.710Z,0.5
2022-11-07T04:56:05.282Z,1.0
2022-11-07T05:01:05.650Z,0.8
2022-11-07T05:06:06.207Z,0.6
2022-11-07T05:11:06.785Z,0.7
2022-11-07T05:16:07.302Z,0.9
2022-11-07T05:21:07.758Z,0.5
2022-11-07T05:26:08.584Z,0.8
2022-11-07T05:31:08.789Z,0.9
2022-11-07T05:36:09.370Z,0.8
2022-11-07T05:41:09.875Z,0.6
2022-11-07T05:46:10.401Z,0.8
2022-11-07T05:51:10.860Z,0.7
2022-11-07T05:56:11.465Z,0.6
2022-11-07T06:01:11.784Z,0.7
2022-11-07T06:06:12.437Z,0.9
2022-11-07T06:11:12.931Z,0.9
2022-11-07T06:16:13.402Z,0.6
2022-11-07T06:21:13.967Z,0.5
2022-11-07T06:26:14.795Z,1.0
2022-11-07T06:31:14.879Z,1.0
2022-11-07T06:36:15.475Z,0.7
2022-11-07T06:41:16.011Z,0.6
2022-11-07T06:46:16.510Z,0.9
2022-11-07T06:51:16.923Z,0.7
2022-11-07T06:56:17.651Z,0.7
2022-11-07T07:01:18.068Z,0.7
2022-11-07T07:06:18.639Z,0.9
2022-11-07T07:11:19.130Z,0.5
2022-11-07T07:16:19.619Z,0.8
2022-11-07T07:21:20.068Z,0.6
2022-11-07T07:26:20.791Z,0.6
2022-11-07T07:31:21.111Z,0.7
2022-11-07T07:36:21.610Z,0.6
2022-11-07T07:41:22.231Z,0.6
2022-11-07T07:46:22.752Z,0.8
2022-11-07T07:51:23.142Z,0.5
2022-11-07T07:56:23.788Z,0.6
2022-11-07T08:01:24.331Z,0.8
2022-11-07T08:06:24.660Z,0.6
2022-11-07T08:11:25.244Z,0.6
2022-11-07T08:16:25.676Z,0.7
2022-11-07T08:21:26.286Z,0.8
2022-11-07T08:26:27.055Z,0.8
2022-11-07T08:31:27.185Z,0.6
2022-11-07T08:36:27.742Z,0.5
2022-11-07T08:41:28.397Z,0.6
2022-11-07T08:46:28.719Z,0.7
2022-11-07T08:51:29.342Z,1.1
2022-11-07T08:56:29.882Z,0.7
2022-11-07T09:01:30.447Z,0.8
2022-11-07T09:06:30.792Z,0.7
2022-11-07T09:11:31.470Z,0.7
2022-11-07T09:16:31.840Z,0.9
2022-11-07T09:21:32.493Z,0.8
2022-11-07T09:26:33.197Z,0.8
2022-11-07T09:31:33.589Z,0.6
2022-11-07T09:36:34.051Z,1.0
2022-11-07T09:41:34.649Z,0.9
2022-11-07T09:46:35.121Z,0.7
2022-11-07T09:51:35.720Z,0.6
2022-11-07T09:56:36.230Z,0.7
2022-11-07T10:01:37.008Z,0.6
2022-11-07T10:06:37.332Z,0.7
2022-11-07T10:11:37.850Z,0.6
2022-11-07T10:16:38.351Z,0.8
2022-11-07T10:21:39.322Z,0.8
2022-11-07T10:26:39.686Z,0.8
2022-11-07T10:31:39.843Z,0.5
2022-11-07T10:36:40.392Z,0.6
2022-11-07T10:41:40.942Z,0.7
2022-11-07T10:46:41.482Z,0.8
2022-11-07T10:51:41.934Z,0.5
2022-11-07T10:56:42.667Z,0.8
2022-11-07T11:01:43.164Z,0.8
2022-11-07T11:06:43.770Z,0.6
2022-11-07T11:11:44.445Z,0.6
2022-11-07T11:16:44.913Z,0.7
2022-11-07T11:21:45.446Z,0.7
2022-11-07T11:26:46.410Z,0.6
2022-11-07T11:31:46.559Z,0.8
2022-11-07T11:36:47.094Z,0.9
2022-11-07T11:41:47.800Z,0.9
2022-11-07T11:46:48.200Z,0.7
2022-11-07T11:51:48.775Z,0.7
2022-11-07T11:56:49.343Z,0.7
2022-11-07T12:01:49.920Z,0.9
2022-11-07T12:06:50.586Z,0.5
2022-11-07T12:11:51.075Z,0.9
2022-11-07T12:16:51.748Z,1.0
2022-11-07T12:21:52.208Z,1.0
2022-11-07T12:26:56.379Z,0.8
2022-11-07T12:31:53.483Z,1.0
2022-11-07T12:36:53.799Z,0.7
2022-11-07T12:41:54.706Z,0.8
2022-11-07T12:46:55.019Z,1.0
2022-11-07T12:51:55.624Z,1.0
2022-11-07T12:56:56.260Z,0.8
2022-11-07T13:01:56.891Z,1.1
2022-11-07T13:06:57.227Z,1.3
2022-11-07T13:11:57.960Z,1.1
2022-11-07T13:16:58.513Z,1.0
2022-11-07T13:21:58.965Z,0.9
2022-11-07T13:26:59.893Z,0.7
2022-11-07T13:32:00.196Z,0.8
2022-11-07T13:37:00.977Z,0.7
2022-11-07T13:42:01.484Z,0.8
2022-11-07T13:47:01.862Z,0.8
2022-11-07T13:52:02.523Z,0.8
2022-11-07T13:57:03.017Z,1.1
2022-11-07T14:02:03.769Z,0.9
2022-11-07T14:07:04.166Z,0.9
2022-11-07T14:12:04.941Z,0.8
2022-11-07T14:17:05.411Z,1.0
2022-11-07T14:22:08.777Z,0.8
2022-11-07T14:27:06.868Z,0.7
2022-11-07T14:32:07.063Z,1.1
2022-11-07T14:37:07.779Z,0.7
2022-11-07T14:42:08.428Z,0.7
2022-11-07T14:47:08.799Z,0.7
2022-11-07T14:52:13.992Z,0.9
2022-11-07T14:57:10.117Z,0.8
2022-11-07T15:02:10.822Z,1.0
2022-11-07T15:07:11.118Z,0.7
2022-11-07T15:12:11.863Z,0.9
2022-11-07T15:17:12.403Z,0.6
2022-11-07T15:22:12.968Z,0.7
2022-11-07T15:27:14.509Z,0.5
2022-11-07T15:32:14.176Z,0.5
2022-11-07T15:37:14.814Z,0.6
2022-11-07T15:42:15.785Z,0.6
2022-11-07T15:47:15.998Z,0.4
2022-11-07T15:52:16.741Z,0.6
2022-11-07T15:57:17.371Z,0.5
2022-11-07T16:02:18.077Z,0.5
2022-11-07T16:07:18.605Z,0.5
2022-11-07T16:12:19.147Z,0.5
2022-11-07T16:17:19.663Z,0.4
2022-11-07T16:22:20.265Z,0.5
2022-11-07T16:27:21.053Z,0.6
2022-11-07T16:32:21.512Z,0.4
2022-11-07T16:37:21.980Z,0.5
2022-11-07T16:42:22.935Z,0.3
2022-11-07T16:47:24.315Z,0.6
2022-11-07T16:52:23.756Z,0.4
2022-11-07T16:57:24.766Z,0.5
2022-11-07T17:02:25.388Z,0.4
2022-11-07T17:07:25.736Z,0.4
2022-11-07T17:12:26.599Z,0.5
2022-11-07T17:17:26.980Z,0.4
2022-11-07T17:22:27.639Z,0.3
2022-11-07T17:27:28.500Z,0.3
2022-11-07T17:32:28.726Z,0.5
2022-11-07T17:37:29.407Z,0.5
2022-11-07T17:42:33.835Z,0.4
2022-11-07T17:47:30.598Z,0.4
2022-11-07T17:52:31.264Z,0.5
2022-11-07T17:57:31.923Z,0.5
2022-11-07T18:02:32.580Z,0.4
2022-11-07T18:07:33.007Z,0.4
2022-11-07T18:12:33.819Z,0.6
2022-11-07T18:17:34.170Z,0.4
2022-11-07T18:22:34.865Z,0.5
2022-11-07T18:27:35.829Z,0.4
2022-11-07T18:32:36.721Z,0.3
2022-11-07T18:37:36.714Z,0.6
2022-11-07T18:42:37.473Z,0.3
2022-11-07T18:47:37.793Z,0.3
2022-11-07T18:52:38.616Z,0.3
2022-11-07T18:57:39.217Z,0.3
2022-11-07T19:02:39.888Z,0.2
2022-11-07T19:07:40.425Z,0.4
2022-11-07T19:12:41.052Z,0.3
2022-11-07T19:17:41.662Z,0.4
2022-11-07T19:22:45.230Z,0.3
2022-11-07T19:27:43.141Z,0.4
2022-11-07T19:32:45.136Z,0.4
2022-11-07T19:37:44.027Z,0.4
2022-11-07T19:42:45.214Z,0.4
2022-11-07T19:47:45.378Z,0.5
2022-11-07T19:52:45.979Z,0.6
2022-11-07T19:57:46.919Z,0.4
2022-11-07T20:02:47.451Z,0.4
2022-11-07T20:07:53.089Z,0.6
2022-11-07T20:12:48.711Z,0.4
2022-11-07T20:17:49.197Z,0.4
2022-11-07T20:22:49.788Z,0.8
2022-11-07T20:27:50.834Z,0.5
2022-11-07T20:32:50.941Z,0.6
2022-11-07T20:37:51.728Z,0.5
2022-11-07T20:42:52.482Z,0.6
2022-11-07T20:47:52.880Z,0.5
2022-11-07T20:52:57.469Z,0.9
2022-11-07T20:57:54.228Z,0.6
2022-11-07T21:02:54.816Z,0.5
2022-11-07T21:07:55.427Z,0.5
2022-11-07T21:12:56.114Z,0.5
2022-11-07T21:17:56.630Z,0.7
2022-11-07T21:22:57.169Z,0.6
2022-11-07T21:27:58.343Z,0.6
2022-11-07T21:32:58.701Z,0.7
2022-11-07T21:37:59.168Z,0.7
2022-11-07T21:42:59.857Z,0.8
2022-11-07T21:48:00.576Z,0.7
2022-11-07T21:53:00.992Z,0.8
2022-11-07T21:58:01.951Z,0.8
2022-11-07T22:03:02.454Z,0.8
2022-11-07T22:08:03.039Z,1.0
2022-11-07T22:13:03.805Z,0.8
2022-11-07T22:18:04.448Z,1.0
2022-11-07T22:23:05.227Z,0.9
2022-11-07T22:28:05.825Z,1.3
2022-11-07T22:33:06.425Z,0.8
2022-11-07T22:38:06.991Z,1.0
2022-11-07T22:43:07.836Z,1.1
2022-11-07T22:48:08.343Z,1.0
2022-11-07T22:53:09.020Z,1.1
2022-11-07T22:58:09.839Z,1.0
2022-11-07T23:03:10.459Z,1.1
2022-11-07T23:08:11.018Z,1.1
2022-11-07T23:13:11.816Z,1.2
2022-11-07T23:18:12.384Z,1.3
2022-11-07T23:23:12.972Z,1.2
2022-11-07T23:28:14.274Z,1.2
2022-11-07T23:33:14.502Z,1.1
2022-11-07T23:38:15.542Z,1.0
2022-11-07T23:43:15.919Z,1.0
2022-11-07T23:48:16.761Z,1.4
2022-11-07T23:53:17.143Z,1.0
2022-11-07T23:58:18.304Z,1.0
